Mitgliederbereich
Imprimable
Challenges > Delhalle - Dinant, 26/08/2012, BEL - La Descente de la Lesse
Liste der Berichte > Delhalle - 21.9km - Ergebnis
Suche: Seite: [1]
34 Eingaben
 
Les réclamations ne sont plus acceptées, les résultats sont considérés comme définitifs.
PlatzNrNameAgeNATLigaMannschaftRealZeitTkmMoy.ScrPtsStadt
1.466FDEMOULIN BRIGITTE52BELSMACRCNAMUR1:46:581:46:584:54 12.29157755LUSTIN
2.218FALEXANDRE FRANCOISE57BEL1:49:381:49:385:01 11.99190715VEDRIN
3.450FBLAISE CHRISTIANE50BELARCH1:50:041:50:165:03 11.92201706ANTHEE
4.800FTIREZ ESTELLE51BELCÉPAL1:54:161:54:165:14 11.50253644
5.1275FLAAR VAN DE ANTOINETTE55NLDKNAUS.V. FORTUNA '672:02:142:02:145:35 10.75381519EERDE
6.1552FRESSELER ANNE-LORE51BEL2:04:542:04:595:43 10.51427477BEERSE
7.76FMORRISNICOLA ELIZABETH52GBRENJAMBE BRUXELLES2:11:032:11:066:00 10.02503394BRUXELLES
8.1252FHUYBERTS RIKIE53NLDKNAUS.V. FORTUNA '672:11:352:11:396:01 9.98506389SINT-OEDENRODE
9.1505FVERBRUGGEN ANNE-MARIE57BELMMCMMC2:14:132:14:216:09 9.78545351WAASMUNSTER
10.1350FMOUS TINEKE54NLDKNAUS.V. FORTUNA '672:16:182:16:206:14 9.64569325S
11.171FGILLES CHANTAL54BELAC NEUAC NEUPRÉ2:17:562:17:586:18 9.52584306VILLERS LE TEMPLE
12.1424FSCHELDEWAERT GILBERTE56BELRUNNERS EVERGEM2:19:182:19:386:23 9.41599289SINT-AMANDSBERG
13.182FBAETEN EDITH52BELRCNAMUR2:20:342:20:346:26 9.35612274NAMUR
14.489FMAROT ANNE52BELUSBW2:20:292:20:596:27 9.32613274BRAINE-L'ALLEUD
15.1459FTULPINCK GISELE51BELJAMES2:20:422:21:106:27 9.31616271WALHAIN
16.72FROUZEEUW GINETTE55BELRIWA2:20:452:21:206:28 9.30618270RIXENSART
17.1015FBAWIN BRIGITTE59BELJAMES2:21:112:22:046:30 9.25624264GENAPPE
18.1229FGROGNET SONIA50BELJAMES2:21:562:22:496:32 9.20628257LOUVAIN-LA-NEUVE
19.1106FDE GROOF MARINA53BELMMC2:24:312:24:556:38 9.07646230MECHELEN
20.982FVAN NIEUWENHOVEN MARTINE53BELANTILOB2:25:302:26:036:41 9.00657218LIMAL
21.110FKEPENNE CARINE51BEL2:25:092:26:046:41 9.00658220MALONNE
22.861FDE ROP MICHELE51BELRONVAU2:26:232:27:046:43 8.94679202GREZ-DOICEAU
23.311FEVRARD JOSIANNE54BELRIWA2:28:512:29:106:49 8.81694178BIERGES
24.1146FDENIS ANNE51BEL2:28:402:29:316:50 8.79699178JAMBES
25.717FDERHE CHRISTINE57BELSP TOUS2:29:142:29:466:51 8.77702172COURT SAINT ETIENNE
26.1030FBINSE ISABELLE55BEL2:29:082:29:506:51 8.77703173CUESMES
27.1096FDART ELISABETH51FRA2:29:342:30:126:52 8.75707168
28.1605FBAROTH FRANCINE57FRAFMAC2:33:122:33:207:01 8.57733132FREYMING MERLEBACH
29.1107FDE KIMPE HERMINE58BEL2:35:102:35:227:06 8.46742114KAPELLEN
30.1223FGOVAERT LUTGARD55BELACBREAK2:34:472:35:227:06 8.46744116BRECHT
31.1143FDELOBELLE BERNADETTE50BELSPHO2:36:582:37:197:11 8.3575298ELLIGNIES-STE-ANNE
32.108FJANSSEN JACQUELINE53BELSERSERUNNER2:38:252:39:157:17 8.2575985SERAING
33.796FVERLAINE CATHERINE52BELSERSERUNNER2:42:242:43:147:28 8.0576954SERAING
34.1384FPIERARD ISABELLE52BELARCH2:47:002:47:387:40 7.8477921DINANT
DNF: abandon; DSQ: disqualifié; Vitesse en km/h
Seite: [1]